createdAt,value
2022-12-19T00:00:36.356Z,4.90
2022-12-19T00:03:24.146Z,5.40
2022-12-19T00:05:51.871Z,7.30
2022-12-19T00:08:19.180Z,6.60
2022-12-19T00:10:56.130Z,5.60
2022-12-19T00:13:24.999Z,5.80
2022-12-19T00:15:53.027Z,6.40
2022-12-19T00:18:21.011Z,6.80
2022-12-19T00:21:15.740Z,6.80
2022-12-19T00:23:44.616Z,7.30
2022-12-19T00:26:14.645Z,7.40
2022-12-19T00:28:43.850Z,5.90
2022-12-19T00:31:11.695Z,6.00
2022-12-19T00:33:43.284Z,6.20
2022-12-19T00:36:22.785Z,6.30
2022-12-19T00:38:52.659Z,6.90
2022-12-19T00:41:26.405Z,5.80
2022-12-19T00:44:03.007Z,6.10
2022-12-19T00:46:33.518Z,5.60
2022-12-19T00:49:01.926Z,6.00
2022-12-19T00:51:34.133Z,6.60
2022-12-19T00:54:02.293Z,6.50
2022-12-19T00:56:37.254Z,6.40
2022-12-19T00:59:07.394Z,7.20
2022-12-19T01:01:37.502Z,7.20
2022-12-19T01:07:01.768Z,6.30
2022-12-19T01:09:33.776Z,5.90
2022-12-19T01:12:24.413Z,6.90
2022-12-19T01:15:01.125Z,9.00
2022-12-19T01:17:34.746Z,6.60
2022-12-19T01:20:14.675Z,6.70
2022-12-19T01:22:43.494Z,6.80
2022-12-19T01:25:14.342Z,6.60
2022-12-19T01:27:41.805Z,6.50
2022-12-19T01:30:10.678Z,5.30
2022-12-19T01:32:38.610Z,6.00
2022-12-19T01:35:06.550Z,6.20
2022-12-19T01:37:38.258Z,6.70
2022-12-19T01:40:06.080Z,15.70
2022-12-19T01:42:37.320Z,9.50
2022-12-19T01:45:08.209Z,10.90
2022-12-19T01:47:48.328Z,10.80
2022-12-19T01:50:32.138Z,9.40
2022-12-19T01:53:01.104Z,8.70
2022-12-19T01:55:30.685Z,9.00
2022-12-19T01:58:00.007Z,19.50
2022-12-19T02:00:27.567Z,7.10
2022-12-19T02:03:10.623Z,8.00
2022-12-19T02:05:41.867Z,7.80
2022-12-19T02:08:10.398Z,8.40
2022-12-19T02:10:38.804Z,7.60
2022-12-19T02:13:06.464Z,7.40
2022-12-19T02:15:47.865Z,8.70
2022-12-19T02:18:30.494Z,6.10
2022-12-19T02:21:14.510Z,6.70
2022-12-19T02:23:51.314Z,7.60
2022-12-19T02:27:00.654Z,7.00
2022-12-19T02:29:42.718Z,5.00
2022-12-19T02:32:34.738Z,6.40
2022-12-19T02:35:07.225Z,6.90
2022-12-19T02:37:42.420Z,7.40
2022-12-19T02:40:33.487Z,11.40
2022-12-19T02:43:04.145Z,8.50
2022-12-19T02:45:35.698Z,7.30
2022-12-19T02:48:08.774Z,6.10
2022-12-19T02:50:39.748Z,7.60
2022-12-19T02:55:48.782Z,7.60
2022-12-19T02:58:31.325Z,7.70
2022-12-19T03:01:31.067Z,9.40
2022-12-19T03:04:06.757Z,8.50
2022-12-19T03:06:45.896Z,7.90
2022-12-19T03:09:36.586Z,7.50
2022-12-19T03:12:17.041Z,8.40
2022-12-19T03:14:48.471Z,8.50
2022-12-19T03:17:16.045Z,10.10
2022-12-19T03:19:45.558Z,9.50
2022-12-19T03:22:13.462Z,10.70
2022-12-19T03:24:41.417Z,10.40
2022-12-19T03:27:14.323Z,9.90
2022-12-19T03:29:48.626Z,10.80
2022-12-19T03:32:18.008Z,9.90
2022-12-19T03:35:10.494Z,10.50
2022-12-19T03:37:41.485Z,9.70
2022-12-19T03:40:14.852Z,9.80
2022-12-19T03:43:04.692Z,9.80
2022-12-19T03:45:57.075Z,8.80
2022-12-19T03:48:24.541Z,8.50
2022-12-19T03:51:26.513Z,10.20
2022-12-19T03:54:09.479Z,9.50
2022-12-19T03:56:50.095Z,9.80
2022-12-19T03:59:27.557Z,9.10
2022-12-19T04:01:57.193Z,9.20
2022-12-19T04:04:28.367Z,9.40
2022-12-19T04:06:57.227Z,9.20
2022-12-19T04:09:25.171Z,10.90
2022-12-19T04:12:05.097Z,9.20
2022-12-19T04:14:38.320Z,9.20
2022-12-19T04:17:31.535Z,8.60
2022-12-19T04:20:20.625Z,9.70
2022-12-19T04:23:00.241Z,9.50
2022-12-19T04:28:16.197Z,9.10
2022-12-19T04:30:45.299Z,9.10
2022-12-19T04:33:12.901Z,11.50
2022-12-19T04:35:40.414Z,10.20
2022-12-19T04:38:07.840Z,11.80
2022-12-19T04:40:40.932Z,10.50
2022-12-19T04:43:09.463Z,10.00
2022-12-19T04:45:37.439Z,11.30
2022-12-19T04:48:05.080Z,9.40
2022-12-19T04:50:35.797Z,11.00
2022-12-19T04:53:03.818Z,10.90
2022-12-19T04:55:40.054Z,10.00
2022-12-19T04:58:07.983Z,12.20
2022-12-19T05:00:35.737Z,11.70
2022-12-19T05:03:03.388Z,12.50
2022-12-19T05:05:30.959Z,12.60
2022-12-19T05:07:58.632Z,12.50
2022-12-19T05:10:26.287Z,12.80
2022-12-19T05:12:54.212Z,10.90
2022-12-19T05:15:21.818Z,21.90
2022-12-19T05:17:49.414Z,22.10
2022-12-19T05:20:17.019Z,22.80
2022-12-19T05:22:44.301Z,20.10
2022-12-19T05:25:11.665Z,18.30
2022-12-19T05:27:39.007Z,18.60
2022-12-19T05:30:07.132Z,25.60
2022-12-19T05:32:35.082Z,19.20
2022-12-19T05:35:02.319Z,18.80
2022-12-19T05:37:29.561Z,18.90
2022-12-19T05:39:56.923Z,22.40
2022-12-19T05:42:25.980Z,67.00
2022-12-19T05:44:53.203Z,57.10
2022-12-19T05:47:20.893Z,66.30
2022-12-19T05:49:48.486Z,88.80
2022-12-19T05:52:15.629Z,45.60
2022-12-19T05:54:43.042Z,61.00
2022-12-19T05:57:10.484Z,70.90
2022-12-19T05:59:37.739Z,74.10
2022-12-19T06:02:05.320Z,105.50
2022-12-19T06:04:32.710Z,81.40
2022-12-19T06:07:00.028Z,41.90
2022-12-19T06:09:27.967Z,61.20
2022-12-19T06:11:55.330Z,35.20
2022-12-19T06:14:23.347Z,29.80
2022-12-19T06:16:52.548Z,29.90
2022-12-19T06:19:20.371Z,28.50
2022-12-19T06:21:48.708Z,20.90
2022-12-19T06:24:16.940Z,19.90
2022-12-19T06:26:44.720Z,16.70
2022-12-19T06:29:12.379Z,18.30
2022-12-19T06:31:40.368Z,16.90
2022-12-19T06:34:10.455Z,19.00
2022-12-19T06:36:38.026Z,20.20
2022-12-19T06:39:05.652Z,17.70
2022-12-19T06:41:52.067Z,18.10
2022-12-19T06:44:20.077Z,17.20
2022-12-19T06:46:47.691Z,20.70
2022-12-19T06:49:14.938Z,17.90
2022-12-19T06:51:42.866Z,18.60
2022-12-19T06:54:14.754Z,23.40
2022-12-19T06:56:43.154Z,19.60
2022-12-19T06:59:16.170Z,21.80
2022-12-19T07:01:57.576Z,16.60
2022-12-19T07:04:39.321Z,17.20
2022-12-19T07:07:07.557Z,16.10
2022-12-19T07:09:35.023Z,16.50
2022-12-19T07:12:02.705Z,14.80
2022-12-19T07:14:30.313Z,17.60
2022-12-19T07:17:01.273Z,15.30
2022-12-19T07:19:31.774Z,17.20
2022-12-19T07:22:01.748Z,16.60
2022-12-19T07:24:29.639Z,15.90
2022-12-19T07:26:57.839Z,16.00
2022-12-19T07:29:28.487Z,21.20
2022-12-19T07:31:56.164Z,22.10
2022-12-19T07:34:23.746Z,24.60
2022-12-19T07:36:51.097Z,25.30
2022-12-19T07:39:18.675Z,36.40
2022-12-19T07:41:46.188Z,49.00
2022-12-19T07:44:16.006Z,41.00
2022-12-19T07:46:44.477Z,56.20
2022-12-19T07:49:12.126Z,58.40
2022-12-19T07:51:39.853Z,38.50
2022-12-19T07:54:07.153Z,22.70
2022-12-19T07:56:34.609Z,23.50
2022-12-19T07:59:02.692Z,25.70
2022-12-19T08:01:30.083Z,21.50
2022-12-19T08:03:58.206Z,16.20
2022-12-19T08:06:27.171Z,18.40
2022-12-19T08:08:55.668Z,17.00
2022-12-19T08:11:26.889Z,17.40
2022-12-19T08:13:54.765Z,18.40
2022-12-19T08:16:24.042Z,19.70
2022-12-19T08:18:52.347Z,18.00
2022-12-19T08:21:19.928Z,19.40
2022-12-19T08:23:47.557Z,19.30
2022-12-19T08:26:24.630Z,19.30
2022-12-19T08:28:55.468Z,18.40
2022-12-19T08:31:24.714Z,20.10
2022-12-19T08:33:55.233Z,19.90
2022-12-19T08:36:23.998Z,17.60
2022-12-19T08:38:52.373Z,19.50
2022-12-19T08:41:20.409Z,20.50
2022-12-19T08:43:52.309Z,18.10
2022-12-19T08:46:21.617Z,16.00
2022-12-19T08:48:49.869Z,17.70
2022-12-19T08:51:17.927Z,19.30
2022-12-19T08:53:46.531Z,18.60
2022-12-19T08:56:17.127Z,17.90
2022-12-19T08:58:44.691Z,17.00
2022-12-19T09:01:18.848Z,18.30
2022-12-19T09:04:05.734Z,18.40
2022-12-19T09:06:35.121Z,18.50
2022-12-19T09:09:03.957Z,20.40
2022-12-19T09:11:33.820Z,16.40
2022-12-19T09:14:09.990Z,19.40
2022-12-19T09:16:42.092Z,17.10
2022-12-19T09:19:18.600Z,23.10
2022-12-19T09:21:53.616Z,20.50
2022-12-19T09:24:28.996Z,19.80
2022-12-19T09:27:02.255Z,20.40
2022-12-19T09:29:38.230Z,27.20
2022-12-19T09:32:11.004Z,20.10
2022-12-19T09:34:46.871Z,20.80
2022-12-19T09:37:22.475Z,22.00
2022-12-19T09:40:08.459Z,21.80
2022-12-19T09:43:09.655Z,21.70
2022-12-19T09:46:14.540Z,23.10
2022-12-19T09:48:54.643Z,19.20
2022-12-19T09:51:41.150Z,25.10
2022-12-19T09:54:14.204Z,20.90
2022-12-19T09:56:52.707Z,22.30
2022-12-19T09:59:45.990Z,22.10
2022-12-19T10:02:35.715Z,20.40
2022-12-19T10:06:25.521Z,23.00
2022-12-19T10:08:35.884Z,26.30
2022-12-19T10:12:42.398Z,30.50
2022-12-19T10:14:56.919Z,20.50
2022-12-19T10:18:03.851Z,24.10
2022-12-19T10:20:43.496Z,20.00
2022-12-19T10:23:48.504Z,19.50
2022-12-19T10:26:44.534Z,22.00
2022-12-19T10:30:02.895Z,17.40
2022-12-19T10:32:59.179Z,20.50
2022-12-19T10:35:44.326Z,18.90
2022-12-19T10:38:36.815Z,20.90
2022-12-19T10:41:44.239Z,17.40
2022-12-19T10:44:25.461Z,23.90
2022-12-19T10:47:04.831Z,18.30
2022-12-19T10:49:35.128Z,19.00
2022-12-19T10:52:04.185Z,20.50
2022-12-19T10:54:42.628Z,21.90
2022-12-19T10:57:24.180Z,25.30
2022-12-19T11:00:03.854Z,22.80
2022-12-19T11:02:42.139Z,20.40
2022-12-19T11:05:41.484Z,19.60
2022-12-19T11:08:08.923Z,19.90
2022-12-19T11:12:22.330Z,20.90
2022-12-19T11:19:49.152Z,25.70
2022-12-19T11:29:36.397Z,18.40
2022-12-19T11:30:08.451Z,19.10
2022-12-19T11:30:35.456Z,20.50
2022-12-19T11:30:43.544Z,19.70
2022-12-19T11:34:17.921Z,20.40
2022-12-19T11:36:58.049Z,19.80
2022-12-19T11:42:26.022Z,21.50
2022-12-19T11:45:03.353Z,20.10
2022-12-19T11:47:40.457Z,20.70
2022-12-19T11:50:36.990Z,27.00
2022-12-19T11:53:19.235Z,22.00
2022-12-19T11:55:55.640Z,31.20
2022-12-19T11:58:24.950Z,54.90
2022-12-19T12:01:05.220Z,29.10
2022-12-19T12:03:57.027Z,24.70
2022-12-19T12:06:38.256Z,25.00
2022-12-19T12:15:22.701Z,23.20
2022-12-19T12:19:47.100Z,26.90
2022-12-19T12:27:34.874Z,25.20
2022-12-19T12:31:31.783Z,25.40
2022-12-19T12:31:44.957Z,29.80
2022-12-19T12:31:56.209Z,43.60
2022-12-19T12:32:06.046Z,29.40
2022-12-19T12:35:34.259Z,39.10
2022-12-19T12:38:21.051Z,37.60
2022-12-19T12:41:01.688Z,38.70
2022-12-19T12:43:53.583Z,32.80
2022-12-19T12:46:27.288Z,38.20
2022-12-19T12:49:06.385Z,28.60
2022-12-19T12:51:34.961Z,31.20
2022-12-19T12:54:07.243Z,29.90
2022-12-19T12:56:36.205Z,28.60
2022-12-19T12:59:22.107Z,33.20
2022-12-19T13:02:20.509Z,35.60
2022-12-19T13:05:01.838Z,40.90
2022-12-19T13:07:44.453Z,29.20
2022-12-19T13:10:29.748Z,27.70
2022-12-19T13:13:14.171Z,27.60
2022-12-19T13:15:45.642Z,30.90
2022-12-19T13:18:35.181Z,34.70
2022-12-19T13:21:05.360Z,22.50
2022-12-19T13:23:49.057Z,39.20
2022-12-19T13:26:44.864Z,33.40
2022-12-19T13:29:28.195Z,41.60
2022-12-19T13:32:14.539Z,32.60
2022-12-19T13:35:09.478Z,56.60
2022-12-19T13:40:00.502Z,34.60
2022-12-19T13:41:29.980Z,37.30
2022-12-19T13:43:59.912Z,37.60
2022-12-19T13:46:42.941Z,41.40
2022-12-19T13:49:19.690Z,43.10
2022-12-19T13:51:54.719Z,35.60
2022-12-19T13:54:28.522Z,32.50
2022-12-19T13:57:01.045Z,34.20
2022-12-19T13:59:39.638Z,51.60
2022-12-19T14:02:18.058Z,35.70
2022-12-19T14:04:45.770Z,55.40
2022-12-19T14:07:39.236Z,37.40
2022-12-19T14:11:38.334Z,28.50
2022-12-19T14:13:55.303Z,28.00
2022-12-19T14:16:18.207Z,34.50
2022-12-19T14:18:50.446Z,60.90
2022-12-19T14:22:07.403Z,55.80
2022-12-19T14:28:21.002Z,36.20
2022-12-19T14:30:27.693Z,33.60
2022-12-19T14:33:46.476Z,40.40
2022-12-19T14:36:11.169Z,35.60
2022-12-19T14:39:19.600Z,32.40
2022-12-19T14:41:46.345Z,42.60
2022-12-19T14:52:25.291Z,29.90
2022-12-19T14:53:17.500Z,33.00
2022-12-19T14:54:12.267Z,32.20
2022-12-19T14:54:20.958Z,38.40
2022-12-19T14:59:37.463Z,39.40
2022-12-19T15:02:08.178Z,39.40
2022-12-19T15:04:51.241Z,77.80
2022-12-19T15:07:26.024Z,39.00
2022-12-19T15:11:03.465Z,37.00
2022-12-19T15:14:51.002Z,30.80
2022-12-19T15:16:06.916Z,31.20
2022-12-19T15:18:41.274Z,35.70
2022-12-19T15:21:13.464Z,35.50
2022-12-19T15:23:44.646Z,35.50
2022-12-19T15:26:16.424Z,35.60
2022-12-19T15:28:51.180Z,32.00
2022-12-19T15:31:31.689Z,30.90
2022-12-19T15:34:33.075Z,34.50
2022-12-19T15:36:46.757Z,31.90
2022-12-19T15:39:17.265Z,43.70
2022-12-19T15:41:48.385Z,36.20
2022-12-19T15:44:23.714Z,29.60
2022-12-19T15:46:54.892Z,36.80
2022-12-19T15:49:24.472Z,42.00
2022-12-19T15:51:52.549Z,28.00
2022-12-19T15:57:32.728Z,30.50
2022-12-19T16:00:05.826Z,26.60
2022-12-19T16:03:13.411Z,32.00
2022-12-19T16:05:28.834Z,54.40
2022-12-19T16:07:58.817Z,44.00
2022-12-19T16:10:29.433Z,33.90
2022-12-19T16:13:00.880Z,36.40
2022-12-19T16:15:33.844Z,27.90
2022-12-19T16:18:05.372Z,36.30
2022-12-19T16:20:37.381Z,30.30
2022-12-19T16:23:19.797Z,29.90
2022-12-19T16:25:50.593Z,37.40
2022-12-19T16:28:32.886Z,43.20
2022-12-19T16:31:14.995Z,46.60
2022-12-19T16:33:52.919Z,45.60
2022-12-19T16:36:24.076Z,37.80
2022-12-19T16:38:51.972Z,31.20
2022-12-19T16:41:23.186Z,36.60
2022-12-19T16:43:51.233Z,32.10
2022-12-19T16:46:23.370Z,27.00
2022-12-19T16:48:50.845Z,30.20
2022-12-19T16:51:21.414Z,33.20
2022-12-19T16:53:51.637Z,37.70
2022-12-19T16:56:25.484Z,28.60
2022-12-19T16:58:52.947Z,31.10
2022-12-19T17:01:20.989Z,29.30
2022-12-19T17:03:48.294Z,25.90
2022-12-19T17:06:18.063Z,26.60
2022-12-19T17:08:46.261Z,26.40
2022-12-19T17:11:21.010Z,26.40
2022-12-19T17:13:56.883Z,27.20
2022-12-19T17:16:24.922Z,29.50
2022-12-19T17:18:54.429Z,28.80
2022-12-19T17:21:23.375Z,32.10
2022-12-19T17:23:55.607Z,32.00
2022-12-19T17:26:27.093Z,41.70
2022-12-19T17:28:57.411Z,41.10
2022-12-19T17:31:38.418Z,41.60
2022-12-19T17:34:27.059Z,33.90
2022-12-19T17:37:00.154Z,28.30
2022-12-19T17:39:34.882Z,34.90
2022-12-19T17:42:17.579Z,31.80
2022-12-19T17:44:48.684Z,28.70
2022-12-19T17:47:21.472Z,27.30
2022-12-19T17:49:55.414Z,27.00
2022-12-19T17:52:24.955Z,24.80
2022-12-19T17:54:55.867Z,23.30
2022-12-19T17:57:26.818Z,21.60
2022-12-19T17:59:54.193Z,24.20
2022-12-19T18:02:45.795Z,26.50
2022-12-19T18:05:36.309Z,25.20
2022-12-19T18:08:45.387Z,23.80
2022-12-19T18:11:42.043Z,25.10
2022-12-19T18:14:37.746Z,32.10
2022-12-19T18:17:36.435Z,34.70
2022-12-19T18:20:48.206Z,31.40
2022-12-19T18:23:26.042Z,28.50
2022-12-19T18:26:00.891Z,30.50
2022-12-19T18:28:30.028Z,26.80
2022-12-19T18:31:03.028Z,30.50
2022-12-19T18:33:37.717Z,30.20
2022-12-19T18:36:07.049Z,28.00
2022-12-19T18:38:34.757Z,28.50
2022-12-19T18:41:18.774Z,26.40
2022-12-19T18:44:08.852Z,29.40
2022-12-19T18:47:07.037Z,29.10
2022-12-19T18:49:52.523Z,27.40
2022-12-19T18:52:47.842Z,29.40
2022-12-19T18:55:40.752Z,38.60
2022-12-19T18:58:45.988Z,32.00
2022-12-19T19:01:33.231Z,22.40
2022-12-19T19:04:22.082Z,21.90
2022-12-19T19:07:16.454Z,21.10
2022-12-19T19:10:04.050Z,22.20
2022-12-19T19:13:09.755Z,26.50
2022-12-19T19:16:06.624Z,27.30
2022-12-19T19:19:00.480Z,43.70
2022-12-19T19:21:39.353Z,30.00
2022-12-19T19:24:12.391Z,33.40
2022-12-19T19:26:40.832Z,26.50
2022-12-19T19:29:08.483Z,26.00
2022-12-19T19:31:40.435Z,34.30
2022-12-19T19:34:23.341Z,46.80
2022-12-19T19:36:55.565Z,42.90
2022-12-19T19:39:23.580Z,44.00
2022-12-19T19:41:51.250Z,28.40
2022-12-19T19:44:18.841Z,33.30
2022-12-19T19:46:46.223Z,36.10
2022-12-19T19:49:14.027Z,26.20
2022-12-19T19:51:42.052Z,27.10
2022-12-19T19:54:10.903Z,23.70
2022-12-19T19:56:38.441Z,24.00
2022-12-19T19:59:06.171Z,25.50
2022-12-19T20:01:34.780Z,26.80
2022-12-19T20:04:03.129Z,38.90
2022-12-19T20:06:31.235Z,42.10
2022-12-19T20:08:58.805Z,32.50
2022-12-19T20:11:26.230Z,31.20
2022-12-19T20:13:53.615Z,39.00
2022-12-19T20:16:21.424Z,33.60
2022-12-19T20:18:51.508Z,23.10
2022-12-19T20:21:20.148Z,21.00
2022-12-19T20:23:47.980Z,22.70
2022-12-19T20:26:17.015Z,21.20
2022-12-19T20:28:49.115Z,20.50
2022-12-19T20:31:23.439Z,23.40
2022-12-19T20:33:53.705Z,22.10
2022-12-19T20:36:22.835Z,22.10
2022-12-19T20:38:51.305Z,21.60
2022-12-19T20:41:19.092Z,22.50
2022-12-19T20:43:47.640Z,21.20
2022-12-19T20:46:18.007Z,20.00
2022-12-19T20:48:46.710Z,22.70
2022-12-19T20:51:15.372Z,22.10
2022-12-19T20:53:43.791Z,24.70
2022-12-19T20:56:17.391Z,26.30
2022-12-19T20:58:46.119Z,23.50
2022-12-19T21:01:19.409Z,31.90
2022-12-19T21:03:48.007Z,29.80
2022-12-19T21:06:19.225Z,39.70
2022-12-19T21:08:47.225Z,42.10
2022-12-19T21:11:16.469Z,37.40
2022-12-19T21:13:44.171Z,22.10
2022-12-19T21:16:14.510Z,24.30
2022-12-19T21:18:44.132Z,22.40
2022-12-19T21:21:18.740Z,22.60
2022-12-19T21:23:46.440Z,23.40
2022-12-19T21:26:14.018Z,22.30
2022-12-19T21:28:42.112Z,21.50
2022-12-19T21:31:17.410Z,20.70
2022-12-19T21:33:45.960Z,21.90
2022-12-19T21:36:20.090Z,21.10
2022-12-19T21:38:50.150Z,23.50
2022-12-19T21:41:18.869Z,23.30
2022-12-19T21:43:53.492Z,22.80
2022-12-19T21:46:24.455Z,23.10
2022-12-19T21:48:55.586Z,21.40
2022-12-19T21:51:29.186Z,22.70
2022-12-19T21:54:00.430Z,22.60
2022-12-19T21:56:34.033Z,20.50
2022-12-19T21:59:06.045Z,22.30
2022-12-19T22:01:34.336Z,24.50
2022-12-19T22:04:05.990Z,22.50
2022-12-19T22:06:36.998Z,21.90
2022-12-19T22:09:06.864Z,22.00
2022-12-19T22:11:35.649Z,20.00
2022-12-19T22:14:04.771Z,21.60
2022-12-19T22:16:34.313Z,20.00
2022-12-19T22:19:02.860Z,16.70
2022-12-19T22:21:31.096Z,21.10
2022-12-19T22:24:00.517Z,21.30
2022-12-19T22:26:30.326Z,20.70
2022-12-19T22:28:58.719Z,20.80
2022-12-19T22:31:28.945Z,21.20
2022-12-19T22:36:28.737Z,20.00
2022-12-19T22:38:59.336Z,18.80
2022-12-19T22:41:26.987Z,19.20
2022-12-19T22:46:28.607Z,19.30
2022-12-19T22:49:11.406Z,20.10
2022-12-19T22:51:39.750Z,21.10
2022-12-19T22:54:07.708Z,21.70
2022-12-19T22:56:35.878Z,20.60
2022-12-19T22:59:06.612Z,19.20
2022-12-19T23:01:36.947Z,19.40
2022-12-19T23:04:07.104Z,20.20
2022-12-19T23:06:37.680Z,19.50
2022-12-19T23:09:07.205Z,19.90
2022-12-19T23:11:37.677Z,21.20
2022-12-19T23:14:08.032Z,19.90
2022-12-19T23:16:35.847Z,20.50
2022-12-19T23:19:04.846Z,19.80
2022-12-19T23:21:33.628Z,20.60
2022-12-19T23:24:01.189Z,20.00
2022-12-19T23:26:34.840Z,15.40
2022-12-19T23:29:07.989Z,18.80
2022-12-19T23:31:38.295Z,19.30
2022-12-19T23:34:06.216Z,19.80
2022-12-19T23:39:21.223Z,18.30
2022-12-19T23:41:48.509Z,19.10
2022-12-19T23:44:15.836Z,18.90
2022-12-19T23:46:43.761Z,17.40
2022-12-19T23:49:11.075Z,17.60
2022-12-19T23:51:38.357Z,16.40
2022-12-19T23:54:08.544Z,17.30
2022-12-19T23:56:36.089Z,16.90
2022-12-19T23:59:03.677Z,17.00
